Cylinder, Iowa
Current Conditions -  °F | °C
As of 8:55 AM on Wednesday 22 Oct 2014 (Local Time) from KAXA Reporting Station
Overcast Overcast  
Wind Chill:   Ceiling: 4200
Heat Index:   Visibility: 10mi
Dew Point:   Wind: 15mph
Humidity: 76%   Direction: 160°SSE
Pressure: 30.17"   Gusts: 26mph
Location:  43.09°N, 94.55°W
Report Text: KAXA 221355Z AUTO 16013G23KT 10SM OVC042 08/04 A3017 RMK AO2
Loading
Personal Weather Stations






























Interactive Weather Map
Tropical Storm Tracking
New forecast layout! Learn more

10-Day Weather Forecast

Advertisements
Track Severe Weather on mobile